Time;durP1;ratioP1;P1;durP2;ratioP2;P2;SDS_P1;SDS_P2;PMS_P1;PMS_P2;Temp;Humidity;BMP_temperature;BMP_pressure;BME280_temperature;BME280_humidity;BME280_pressure;Samples;Min_cycle;Max_cycle;Signal;HPM_P1;HPM_P2
2021/04/10 00:02:06;;;;;;;3.30;2.50;;;24.50;52.70;;;;;;5095564;28;20992;-86
2021/04/10 00:04:32;;;;;;;2.60;2.40;;;24.50;52.70;;;;;;5095859;28;20439;-85
2021/04/10 00:06:58;;;;;;;2.13;1.93;;;24.40;52.70;;;;;;5095724;28;20933;-84
2021/04/10 00:09:24;;;;;;;2.43;2.23;;;24.40;52.70;;;;;;5095106;28;20502;-84
2021/04/10 00:11:51;;;;;;;2.73;2.53;;;24.40;52.80;;;;;;5095579;28;20442;-86
2021/04/10 00:14:18;;;;;;;2.30;2.10;;;24.40;52.70;;;;;;5095628;28;20471;-84
2021/04/10 00:16:44;;;;;;;2.60;2.40;;;24.50;52.90;;;;;;5095492;28;20435;-85
2021/04/10 00:19:11;;;;;;;2.77;2.57;;;24.40;52.80;;;;;;5095463;28;20446;-84
2021/04/10 00:21:38;;;;;;;2.50;2.30;;;24.40;52.80;;;;;;5095499;28;20841;-84
2021/04/10 00:24:04;;;;;;;1.87;1.77;;;24.40;52.90;;;;;;5095429;28;20442;-84
2021/04/10 00:26:30;;;;;;;2.80;2.60;;;24.40;52.90;;;;;;5095207;28;20524;-84
2021/04/10 00:28:57;;;;;;;2.87;2.67;;;24.40;52.90;;;;;;5095008;28;21014;-86
2021/04/10 00:31:24;;;;;;;4.90;2.70;;;24.40;52.90;;;;;;5095133;28;20442;-85
2021/04/10 00:33:50;;;;;;;2.33;2.20;;;24.40;52.90;;;;;;5095425;28;20563;-87
2021/04/10 00:36:16;;;;;;;2.37;2.17;;;24.40;52.90;;;;;;5094932;28;20438;-87
2021/04/10 00:38:43;;;;;;;2.30;2.20;;;24.40;53.00;;;;;;5095332;28;20471;-88
2021/04/10 00:41:12;;;;;;;2.77;2.57;;;24.40;53.00;;;;;;5095083;28;20470;-88
2021/04/10 00:43:39;;;;;;;2.93;2.73;;;24.40;53.10;;;;;;5095244;28;20446;-87
2021/04/10 00:46:06;;;;;;;2.70;2.50;;;24.40;53.10;;;;;;5094920;28;20438;-88
2021/04/10 00:48:34;;;;;;;2.13;2.03;;;24.40;53.10;;;;;;5094856;28;20447;-88
2021/04/10 00:51:00;;;;;;;2.37;2.20;;;24.40;53.20;;;;;;5094815;28;20439;-87
2021/04/10 00:53:28;;;;;;;2.47;2.30;;;24.40;53.20;;;;;;5094823;28;20431;-87
2021/04/10 00:55:57;;;;;;;1.90;1.80;;;24.30;53.20;;;;;;5094503;28;20841;-87
2021/04/10 00:58:23;;;;;;;2.30;2.20;;;24.30;53.20;;;;;;5094624;28;20827;-88
2021/04/10 01:00:50;;;;;;;2.47;2.27;;;24.30;53.30;;;;;;5094532;28;20442;-84
2021/04/10 01:03:17;;;;;;;2.50;2.30;;;24.30;53.30;;;;;;5094389;28;20840;-85
2021/04/10 01:05:44;;;;;;;2.30;2.13;;;24.30;53.40;;;;;;5094443;28;20450;-86
2021/04/10 01:08:10;;;;;;;2.43;2.23;;;24.30;53.40;;;;;;5094465;28;20448;-84
2021/04/10 01:10:37;;;;;;;2.10;2.00;;;24.30;53.40;;;;;;5094560;28;20449;-87
2021/04/10 01:13:16;;;;;;;2.80;2.60;;;24.30;53.50;;;;;;5094513;28;20436;-84
2021/04/10 01:15:50;;;;;;;2.07;1.93;;;24.30;53.50;;;;;;5094251;28;20443;-86
2021/04/10 01:18:21;;;;;;;2.17;2.00;;;24.40;53.60;;;;;;5094267;28;20502;-84
2021/04/10 01:21:01;;;;;;;2.47;2.27;;;24.30;53.50;;;;;;5093559;28;20442;-84
2021/04/10 01:24:19;;;;;;;2.50;2.30;;;24.30;53.50;;;;;;5094378;28;20433;-87
2021/04/10 01:27:17;;;;;;;2.10;2.00;;;24.30;53.60;;;;;;5094051;28;20495;-87
2021/04/10 01:29:47;;;;;;;2.50;2.30;;;24.20;53.60;;;;;;5069134;28;20432;-85
2021/04/10 01:32:14;;;;;;;2.60;2.40;;;24.20;53.60;;;;;;5094073;28;20443;-84
2021/04/10 01:34:43;;;;;;;2.00;1.90;;;24.20;53.60;;;;;;5094094;28;20498;-84
2021/04/10 01:37:14;;;;;;;2.47;2.27;;;24.20;53.60;;;;;;5093834;28;20488;-84
2021/04/10 01:39:42;;;;;;;2.43;2.23;;;24.20;53.60;;;;;;5094133;28;20499;-85
2021/04/10 01:42:10;;;;;;;1.97;1.87;;;24.20;53.60;;;;;;5093850;28;20805;-84
2021/04/10 01:44:37;;;;;;;2.20;2.10;;;24.30;53.70;;;;;;5094023;28;20446;-86
2021/04/10 01:47:07;;;;;;;2.50;2.30;;;24.30;53.70;;;;;;5093677;28;20481;-84
2021/04/10 01:49:35;;;;;;;2.53;2.33;;;24.20;53.70;;;;;;5093694;28;20446;-85
2021/04/10 01:52:02;;;;;;;2.37;2.27;;;24.20;53.70;;;;;;5093573;28;20445;-85
2021/04/10 01:54:32;;;;;;;2.23;2.13;;;24.20;53.60;;;;;;5093521;28;20921;-85
2021/04/10 01:56:58;;;;;;;3.10;2.80;;;24.30;53.80;;;;;;5093622;28;20522;-84
2021/04/10 01:59:25;;;;;;;1.80;1.70;;;24.30;53.70;;;;;;5093468;28;20468;-85
2021/04/10 02:01:53;;;;;;;2.60;2.40;;;24.30;53.80;;;;;;5093620;28;20508;-87
2021/04/10 02:04:21;;;;;;;2.57;2.37;;;24.30;53.80;;;;;;5093620;28;20449;-87
2021/04/10 02:06:49;;;;;;;2.30;2.20;;;24.30;53.80;;;;;;5093565;28;20455;-86
2021/04/10 02:09:16;;;;;;;2.20;2.10;;;24.30;53.70;;;;;;5093685;28;20448;-86
2021/04/10 02:11:44;;;;;;;2.43;2.23;;;24.30;53.80;;;;;;5093647;28;20454;-87
2021/04/10 02:14:12;;;;;;;2.37;2.23;;;24.20;53.70;;;;;;5093503;28;20499;-87
2021/04/10 02:16:39;;;;;;;2.57;2.37;;;24.30;53.80;;;;;;5093383;28;20495;-84
2021/04/10 02:19:06;;;;;;;2.30;2.10;;;24.40;54.00;;;;;;5093407;28;20439;-87
2021/04/10 02:21:33;;;;;;;2.47;2.33;;;24.20;53.80;;;;;;5093561;28;20482;-87
2021/04/10 02:24:00;;;;;;;2.40;2.20;;;24.20;53.80;;;;;;5093585;28;20470;-86
2021/04/10 02:26:27;;;;;;;1.90;1.73;;;24.20;53.80;;;;;;5093256;28;20464;-88
2021/04/10 02:28:56;;;;;;;2.40;2.20;;;24.30;53.80;;;;;;5093533;28;20438;-87
2021/04/10 02:31:28;;;;;;;2.23;2.03;;;24.20;53.90;;;;;;5094920;28;20449;-87
2021/04/10 02:33:58;;;;;;;2.33;2.23;;;24.20;53.80;;;;;;5097475;28;20946;-87
2021/04/10 02:36:25;;;;;;;2.40;2.30;;;24.40;54.00;;;;;;5097527;28;20438;-87
2021/04/10 02:38:54;;;;;;;2.60;2.40;;;24.20;53.90;;;;;;5097555;28;20431;-86
2021/04/10 02:41:23;;;;;;;2.17;2.07;;;24.20;53.90;;;;;;5097157;28;20989;-88
2021/04/10 02:43:55;;;;;;;2.10;2.00;;;24.40;54.00;;;;;;5097310;28;20439;-87
2021/04/10 02:46:25;;;;;;;3.00;2.53;;;24.40;54.00;;;;;;5097508;28;20449;-87
2021/04/10 02:48:57;;;;;;;2.37;2.27;;;24.20;53.80;;;;;;5097280;28;20443;-87
2021/04/10 02:51:29;;;;;;;2.13;2.03;;;24.20;53.80;;;;;;5097272;28;20447;-87
2021/04/10 02:53:57;;;;;;;2.03;1.90;;;24.40;54.00;;;;;;5097177;28;20485;-88
2021/04/10 02:56:28;;;;;;;2.20;2.10;;;24.20;53.90;;;;;;5097019;28;20462;-87
2021/04/10 02:58:55;;;;;;;1.90;1.80;;;24.20;53.90;;;;;;5096809;28;20839;-87
2021/04/10 03:01:22;;;;;;;2.57;2.37;;;24.40;54.00;;;;;;5097222;28;20507;-88
2021/04/10 03:03:50;;;;;;;2.40;2.20;;;24.30;54.00;;;;;;5096873;28;20491;-88
2021/04/10 03:06:18;;;;;;;2.30;2.20;;;24.30;54.00;;;;;;5096843;28;20444;-87
2021/04/10 03:08:47;;;;;;;1.83;1.73;;;24.30;54.00;;;;;;5096535;28;20447;-87
2021/04/10 03:11:15;;;;;;;2.33;2.13;;;24.30;54.00;;;;;;5096750;28;20450;-87
2021/04/10 03:13:42;;;;;;;2.30;2.20;;;24.20;53.90;;;;;;5096848;28;20446;-87
2021/04/10 03:16:09;;;;;;;2.37;2.17;;;24.20;53.90;;;;;;5096697;28;20443;-87
2021/04/10 03:18:38;;;;;;;2.13;2.03;;;24.20;53.90;;;;;;5096821;28;20441;-86
2021/04/10 03:21:05;;;;;;;2.43;2.23;;;24.30;54.00;;;;;;5096724;28;20438;-87
2021/04/10 03:23:31;;;;;;;2.20;2.10;;;24.20;54.00;;;;;;5096585;28;20438;-86
2021/04/10 03:25:59;;;;;;;2.03;1.93;;;24.20;53.90;;;;;;5096490;28;20462;-88
2021/04/10 03:28:28;;;;;;;2.40;2.30;;;24.20;53.90;;;;;;5096396;28;20442;-86
2021/04/10 03:30:55;;;;;;;2.70;2.50;;;24.40;54.00;;;;;;5096510;28;20433;-87
2021/04/10 03:33:22;;;;;;;2.23;2.10;;;24.20;53.80;;;;;;5096483;28;20443;-88
2021/04/10 03:35:50;;;;;;;2.37;2.27;;;24.40;54.00;;;;;;5096307;28;20861;-88
2021/04/10 03:38:17;;;;;;;1.90;1.80;;;24.20;53.80;;;;;;5096185;28;20436;-88
2021/04/10 03:40:43;;;;;;;2.20;2.10;;;24.20;53.80;;;;;;5095989;28;20446;-88
2021/04/10 03:43:10;;;;;;;2.40;2.20;;;24.20;53.80;;;;;;5094975;28;20479;-87
2021/04/10 03:45:37;;;;;;;2.03;1.90;;;24.30;53.80;;;;;;5095779;28;20949;-87
2021/04/10 03:48:04;;;;;;;2.17;2.07;;;24.20;53.70;;;;;;5095893;28;20442;-87
2021/04/10 03:50:30;;;;;;;2.23;2.13;;;24.30;53.80;;;;;;5095760;28;20434;-87
2021/04/10 03:52:56;;;;;;;2.20;2.10;;;24.20;53.70;;;;;;5095651;28;20452;-88
2021/04/10 03:55:23;;;;;;;2.13;2.03;;;24.20;53.70;;;;;;5095550;28;20434;-87
2021/04/10 03:57:49;;;;;;;1.90;1.80;;;24.20;53.70;;;;;;5095472;28;20561;-87
2021/04/10 04:00:16;;;;;;;1.93;1.83;;;24.20;53.70;;;;;;5095613;28;20843;-87
2021/04/10 04:02:43;;;;;;;2.00;1.90;;;24.20;53.70;;;;;;5095518;28;20489;-87
2021/04/10 04:05:11;;;;;;;2.10;2.00;;;24.20;53.70;;;;;;5095946;28;20452;-87
2021/04/10 04:07:38;;;;;;;1.97;1.87;;;24.20;53.70;;;;;;5095919;28;20451;-88
2021/04/10 04:10:05;;;;;;;1.80;1.70;;;24.20;53.70;;;;;;5095722;28;20925;-88
2021/04/10 04:12:31;;;;;;;2.33;2.20;;;24.20;54.30;;;;;;5095536;28;20446;-85
2021/04/10 04:14:58;;;;;;;2.10;2.00;;;24.20;53.70;;;;;;5095487;28;20449;-87
2021/04/10 04:17:24;;;;;;;2.13;2.03;;;24.20;53.70;;;;;;5095587;28;20515;-87
2021/04/10 04:19:51;;;;;;;1.80;1.70;;;24.20;53.70;;;;;;5095645;28;20444;-87
2021/04/10 04:22:17;;;;;;;2.00;1.80;;;24.30;53.80;;;;;;5095370;28;20983;-88
2021/04/10 04:24:44;;;;;;;2.10;2.00;;;24.20;53.70;;;;;;5095441;28;20447;-88
2021/04/10 04:27:10;;;;;;;2.33;2.23;;;24.20;53.70;;;;;;5094940;28;21003;-86
2021/04/10 04:29:36;;;;;;;1.97;1.87;;;24.20;53.80;;;;;;5095322;28;20454;-87
2021/04/10 04:32:03;;;;;;;1.90;1.80;;;24.20;53.80;;;;;;5095378;28;20442;-88
2021/04/10 04:34:29;;;;;;;2.20;2.00;;;24.20;53.80;;;;;;5095155;28;20439;-88
2021/04/10 04:36:56;;;;;;;4.03;1.90;;;24.20;53.80;;;;;;5095168;28;20519;-88
2021/04/10 04:39:22;;;;;;;2.23;2.13;;;24.20;53.80;;;;;;5095104;28;20436;-88
2021/04/10 04:41:48;;;;;;;2.20;2.10;;;24.20;54.40;;;;;;5094926;28;20493;-88
2021/04/10 04:44:14;;;;;;;1.97;1.87;;;24.20;53.80;;;;;;5095103;28;20525;-88
2021/04/10 04:46:41;;;;;;;2.20;2.10;;;24.20;53.80;;;;;;5095102;28;20470;-87
2021/04/10 04:49:07;;;;;;;1.70;1.60;;;24.20;53.80;;;;;;5095192;28;20445;-88
2021/04/10 04:51:33;;;;;;;1.93;1.83;;;24.20;53.80;;;;;;5094537;28;20510;-88
2021/04/10 04:54:01;;;;;;;1.80;1.70;;;24.20;53.90;;;;;;5094541;28;20446;-87
2021/04/10 04:56:27;;;;;;;2.00;1.90;;;24.20;53.80;;;;;;5094340;28;20504;-87
2021/04/10 04:58:53;;;;;;;2.30;2.20;;;24.20;53.90;;;;;;5094580;28;20478;-87
2021/04/10 05:01:20;;;;;;;1.90;1.80;;;24.40;54.00;;;;;;5094529;28;20479;-87
2021/04/10 05:03:46;;;;;;;2.00;1.90;;;24.20;53.90;;;;;;5094547;28;20442;-88
2021/04/10 05:06:13;;;;;;;2.07;1.97;;;24.20;53.90;;;;;;5094491;28;20449;-87
2021/04/10 05:08:40;;;;;;;2.37;2.27;;;24.20;53.90;;;;;;5094393;28;20529;-88
2021/04/10 05:11:07;;;;;;;2.33;2.23;;;24.20;53.90;;;;;;5094156;28;20443;-86
2021/04/10 05:13:33;;;;;;;1.77;1.67;;;24.20;53.90;;;;;;5094216;28;20438;-83
2021/04/10 05:16:00;;;;;;;2.07;1.87;;;24.40;54.10;;;;;;5094469;28;20449;-85
2021/04/10 05:18:26;;;;;;;2.00;1.90;;;24.20;53.90;;;;;;5094107;28;20460;-85
2021/04/10 05:20:52;;;;;;;2.20;2.00;;;24.20;53.90;;;;;;5093920;28;20450;-86
2021/04/10 05:23:21;;;;;;;2.23;2.10;;;24.20;53.90;;;;;;5094008;28;20492;-84
2021/04/10 05:25:47;;;;;;;2.07;1.97;;;24.20;53.90;;;;;;5093927;28;20457;-83
2021/04/10 05:28:14;;;;;;;1.70;1.60;;;24.20;53.90;;;;;;5093813;28;20434;-86
2021/04/10 05:30:41;;;;;;;2.07;1.97;;;24.20;53.90;;;;;;5093932;28;20455;-86
2021/04/10 05:33:07;;;;;;;1.90;1.80;;;24.20;53.90;;;;;;5093847;28;20794;-86
2021/04/10 05:35:33;;;;;;;1.60;1.50;;;24.20;53.90;;;;;;5094033;28;20442;-86
2021/04/10 05:37:59;;;;;;;1.80;1.70;;;24.20;53.90;;;;;;5093940;28;20435;-85
2021/04/10 05:40:26;;;;;;;2.00;1.90;;;24.20;53.90;;;;;;5094183;28;20442;-84
2021/04/10 05:42:52;;;;;;;1.80;1.70;;;24.20;53.90;;;;;;5093922;28;20486;-84
2021/04/10 05:45:19;;;;;;;2.07;1.97;;;24.30;53.90;;;;;;5094447;28;20438;-84
2021/04/10 05:47:45;;;;;;;2.03;1.93;;;24.30;53.90;;;;;;5093756;28;21003;-87
2021/04/10 05:50:12;;;;;;;1.73;1.63;;;24.30;53.90;;;;;;5093850;28;20442;-86
2021/04/10 05:52:39;;;;;;;1.70;1.60;;;24.20;53.90;;;;;;5093596;28;20424;-85
2021/04/10 05:55:07;;;;;;;2.00;1.87;;;24.30;54.50;;;;;;5093612;28;20435;-84
2021/04/10 05:57:34;;;;;;;1.80;1.70;;;24.30;53.90;;;;;;5093396;28;20474;-86
2021/04/10 06:00:00;;;;;;;2.63;2.43;;;24.30;54.00;;;;;;5093773;28;20443;-87
2021/04/10 06:02:27;;;;;;;1.57;1.47;;;24.20;53.90;;;;;;5093589;28;20492;-86
2021/04/10 06:04:54;;;;;;;1.60;1.50;;;24.30;54.00;;;;;;5093686;28;20442;-84
2021/04/10 06:07:20;;;;;;;1.67;1.57;;;24.40;54.10;;;;;;5093162;28;20452;-84
2021/04/10 06:09:46;;;;;;;2.00;1.90;;;24.30;54.00;;;;;;5093483;28;20505;-87
2021/04/10 06:12:13;;;;;;;1.80;1.70;;;24.30;54.00;;;;;;5093551;28;20503;-84
2021/04/10 06:14:39;;;;;;;2.07;1.97;;;24.30;53.90;;;;;;5093627;28;20439;-84
2021/04/10 06:17:05;;;;;;;1.63;1.53;;;24.30;53.90;;;;;;5093532;28;20454;-84
2021/04/10 06:19:33;;;;;;;1.70;1.60;;;24.30;53.90;;;;;;5093453;28;20960;-84
2021/04/10 06:21:59;;;;;;;1.70;1.60;;;24.30;53.90;;;;;;5093522;28;20481;-83
2021/04/10 06:24:25;;;;;;;2.33;1.90;;;24.30;53.90;;;;;;5093364;28;20778;-86
2021/04/10 06:26:51;;;;;;;1.50;1.40;;;24.30;54.00;;;;;;5093080;28;20462;-87
2021/04/10 06:29:18;;;;;;;2.20;1.43;;;24.30;53.90;;;;;;5093306;28;20442;-84
2021/04/10 06:31:44;;;;;;;1.80;1.70;;;24.30;53.90;;;;;;5093389;28;20809;-84
2021/04/10 06:34:10;;;;;;;1.77;1.67;;;24.30;53.90;;;;;;5093296;28;20460;-84
2021/04/10 06:36:37;;;;;;;2.33;2.03;;;24.30;53.90;;;;;;5093336;28;20988;-83
2021/04/10 06:39:04;;;;;;;1.80;1.70;;;24.30;53.90;;;;;;5093424;28;20443;-85
2021/04/10 06:41:30;;;;;;;1.80;1.70;;;24.20;53.90;;;;;;5093107;28;20471;-85
2021/04/10 06:43:57;;;;;;;1.63;1.53;;;24.20;53.90;;;;;;5093341;28;20454;-86
2021/04/10 06:46:24;;;;;;;1.47;1.37;;;24.30;54.00;;;;;;5093303;28;20496;-84
2021/04/10 06:48:56;;;;;;;2.03;1.47;;;24.40;54.70;;;;;;5093382;28;20436;-84
2021/04/10 06:51:24;;;;;;;1.90;1.77;;;24.20;53.90;;;;;;5093200;28;20465;-86
2021/04/10 06:53:53;;;;;;;1.73;1.63;;;24.20;53.90;;;;;;5093212;28;20960;-86
2021/04/10 06:56:23;;;;;;;1.77;1.43;;;24.30;54.00;;;;;;5092930;28;20466;-89
2021/04/10 06:58:55;;;;;;;1.30;1.20;;;24.20;53.90;;;;;;5092944;28;20483;-91
2021/04/10 07:01:22;;;;;;;1.73;1.63;;;24.50;54.10;;;;;;5093233;28;20449;-90
2021/04/10 07:03:51;;;;;;;4.27;1.57;;;24.30;54.70;;;;;;5093480;28;20443;-90
2021/04/10 07:06:17;;;;;;;2.70;1.63;;;24.40;54.20;;;;;;5093369;28;20474;-89
2021/04/10 07:08:44;;;;;;;1.70;1.50;;;24.20;54.00;;;;;;5093073;28;20443;-84
2021/04/10 07:11:13;;;;;;;1.80;1.53;;;24.30;54.00;;;;;;5093226;28;20495;-85
2021/04/10 07:13:39;;;;;;;2.07;1.87;;;24.30;54.10;;;;;;5092808;28;20443;-81
2021/04/10 07:16:06;;;;;;;5.53;1.70;;;24.30;54.00;;;;;;5093048;28;20452;-83
2021/04/10 07:18:32;;;;;;;10.20;4.60;;;24.30;53.40;;;;;;5094203;28;20488;-86
2021/04/10 07:21:16;;;;;;;3.37;2.53;;;24.30;53.20;;;;;;5097113;28;20449;-85
2021/04/10 07:23:48;;;;;;;1.90;1.80;;;24.30;53.50;;;;;;5096718;28;20440;-85
2021/04/10 07:26:17;;;;;;;2.87;1.80;;;24.20;53.90;;;;;;5096536;28;20466;-86
2021/04/10 07:28:43;;;;;;;2.27;1.67;;;24.40;54.20;;;;;;5096658;28;20883;-86
2021/04/10 07:31:12;;;;;;;2.37;1.63;;;24.20;54.20;;;;;;5096674;28;20436;-85
2021/04/10 07:33:39;;;;;;;3.50;1.63;;;24.20;54.20;;;;;;5096292;28;20454;-85
2021/04/10 07:36:07;;;;;;;3.20;1.47;;;24.30;54.40;;;;;;5096296;28;20434;-85
2021/04/10 07:38:35;;;;;;;3.37;1.83;;;24.30;54.30;;;;;;5096142;28;20435;-85
2021/04/10 07:41:04;;;;;;;4.03;1.60;;;24.30;54.30;;;;;;5096223;28;20448;-85
2021/04/10 07:43:36;;;;;;;2.63;1.73;;;24.30;54.40;;;;;;5096055;28;20481;-85
2021/04/10 07:46:20;;;;;;;2.63;1.63;;;24.30;54.40;;;;;;5096229;28;20966;-85
2021/04/10 07:49:04;;;;;;;1.70;1.60;;;24.30;54.50;;;;;;5096086;28;20441;-85
2021/04/10 07:51:32;;;;;;;2.03;1.93;;;24.50;54.70;;;;;;5095772;28;20439;-85
2021/04/10 07:54:00;;;;;;;1.60;1.40;;;24.30;54.60;;;;;;5095934;28;20446;-85
2021/04/10 07:56:26;;;;;;;1.73;1.53;;;24.30;54.60;;;;;;5096043;28;20857;-85
2021/04/10 07:59:01;;;;;;;2.70;1.37;;;24.50;54.80;;;;;;5095763;28;20470;-85
2021/04/10 08:01:27;;;;;;;1.67;1.30;;;24.40;54.70;;;;;;5095732;28;20442;-85
2021/04/10 08:03:57;;;;;;;3.43;1.70;;;24.30;54.50;;;;;;5095545;28;21014;-85
2021/04/10 08:06:23;;;;;;;3.43;2.20;;;24.40;54.80;;;;;;5095859;28;20924;-85
2021/04/10 08:08:53;;;;;;;2.00;1.40;;;24.40;54.80;;;;;;5095587;28;20791;-85
2021/04/10 08:11:36;;;;;;;2.07;1.77;;;24.40;54.90;;;;;;5095569;28;20491;-85
2021/04/10 08:14:06;;;;;;;1.40;1.30;;;24.40;54.80;;;;;;5095641;28;20843;-85
2021/04/10 08:16:38;;;;;;;3.10;1.83;;;24.40;54.90;;;;;;5095687;28;20439;-85
2021/04/10 08:19:05;;;;;;;2.53;1.40;;;24.40;54.90;;;;;;5095791;28;20447;-85
2021/04/10 08:21:40;;;;;;;1.60;1.40;;;24.40;54.90;;;;;;5095514;28;20540;-85
2021/04/10 08:24:26;;;;;;;2.27;2.00;;;24.40;54.90;;;;;;5095448;28;20441;-86
2021/04/10 08:26:54;;;;;;;3.13;2.13;;;24.50;55.00;;;;;;5095204;28;20473;-82
2021/04/10 08:29:22;;;;;;;2.07;1.67;;;24.40;54.90;;;;;;5094749;28;20461;-83
2021/04/10 08:31:49;;;;;;;1.80;1.70;;;24.50;55.00;;;;;;5095231;28;20453;-81
2021/04/10 08:34:16;;;;;;;3.07;1.87;;;24.50;55.00;;;;;;5095016;28;20446;-83
2021/04/10 08:36:44;;;;;;;6.70;2.27;;;24.50;55.00;;;;;;5095108;28;20829;-82
2021/04/10 08:39:10;;;;;;;1.87;1.77;;;24.50;55.00;;;;;;5095066;28;20440;-86
2021/04/10 08:41:38;;;;;;;2.00;1.90;;;24.50;55.00;;;;;;5094872;28;20515;-88
2021/04/10 08:44:07;;;;;;;1.60;1.50;;;24.50;55.00;;;;;;5095124;28;20439;-87
2021/04/10 08:46:38;;;;;;;5.20;1.67;;;24.50;55.00;;;;;;5095069;28;20450;-89
2021/04/10 08:49:06;;;;;;;1.70;1.57;;;24.50;55.10;;;;;;5095693;28;20504;-88
2021/04/10 08:51:38;;;;;;;5.97;1.80;;;24.50;55.10;;;;;;5094796;28;20443;-88
2021/04/10 08:54:09;;;;;;;2.13;1.40;;;24.50;55.10;;;;;;5095142;28;20428;-90
2021/04/10 08:56:35;;;;;;;3.00;1.93;;;24.50;55.10;;;;;;5094752;28;20469;-90
2021/04/10 08:59:12;;;;;;;1.80;1.70;;;24.60;55.20;;;;;;5095271;28;20496;-92
2021/04/10 09:01:42;;;;;;;2.57;1.70;;;24.60;55.00;;;;;;5104500;28;20435;-96
2021/04/10 09:04:09;;;;;;;2.63;1.97;;;24.70;55.20;;;;;;5103209;28;20995;-93
2021/04/10 09:06:51;;;;;;;4.03;1.80;;;24.70;55.20;;;;;;5100127;28;20439;-95
2021/04/10 09:09:30;;;;;;;3.27;1.80;;;24.60;55.10;;;;;;5097517;28;20500;-91
2021/04/10 09:12:19;;;;;;;1.77;1.67;;;24.60;55.10;;;;;;5084156;28;20444;-94
2021/04/10 09:14:47;;;;;;;2.83;2.23;;;24.60;55.20;;;;;;5075843;28;20451;-89
2021/04/10 09:17:15;;;;;;;3.00;2.70;;;24.50;55.00;;;;;;5076504;28;20812;-87
2021/04/10 09:19:41;;;;;;;4.67;4.27;;;24.50;55.00;;;;;;5079296;28;20488;-95
2021/04/10 09:22:09;;;;;;;10.40;3.73;;;24.60;54.90;;;;;;5074216;28;20484;-91
2021/04/10 09:24:40;;;;;;;3.93;3.00;;;24.60;54.50;;;;;;5073936;28;20447;-90
2021/04/10 09:27:11;;;;;;;3.00;2.80;;;24.70;54.30;;;;;;5073397;28;20475;-90
2021/04/10 09:29:58;;;;;;;3.90;2.60;;;24.50;54.40;;;;;;5074253;28;20850;-91
2021/04/10 09:32:41;;;;;;;2.60;2.40;;;24.60;54.80;;;;;;5074964;28;20442;-96
2021/04/10 09:35:12;;;;;;;2.70;2.50;;;24.50;54.80;;;;;;5074910;28;20844;-94
2021/04/10 09:38:02;;;;;;;3.37;3.00;;;24.60;54.90;;;;;;5074842;28;20905;-94
2021/04/10 09:40:50;;;;;;;3.00;2.80;;;24.60;54.90;;;;;;5074151;28;20478;-90
2021/04/10 09:43:26;;;;;;;3.03;2.30;;;24.60;55.00;;;;;;5073896;28;20476;-91
2021/04/10 09:45:53;;;;;;;6.97;3.00;;;24.60;55.00;;;;;;5073738;28;20436;-94
2021/04/10 09:48:27;;;;;;;3.70;2.53;;;24.60;55.10;;;;;;5073745;28;20449;-95
2021/04/10 09:51:13;;;;;;;3.50;3.20;;;24.60;55.10;;;;;;5074400;28;20446;-89
2021/04/10 09:53:39;;;;;;;4.53;3.13;;;24.70;55.20;;;;;;5074288;28;20440;-92
2021/04/10 09:56:12;;;;;;;4.80;2.80;;;24.60;55.20;;;;;;5074032;28;20463;-87
2021/04/10 09:58:41;;;;;;;4.73;4.33;;;24.60;55.20;;;;;;5075036;28;20475;-93
2021/04/10 10:01:26;;;;;;;3.47;2.87;;;24.60;55.00;;;;;;5129414;27;730843;-89
2021/04/10 10:03:53;;;;;;;4.43;3.10;;;24.60;55.00;;;;;;5134735;28;20203;-92
2021/04/10 10:06:34;;;;;;;4.93;4.53;;;24.60;55.00;;;;;;5132794;28;20579;-87
2021/04/10 10:09:01;;;;;;;4.37;3.33;;;24.70;55.20;;;;;;5114305;28;20499;-93
2021/04/10 10:11:27;;;;;;;4.40;3.67;;;24.60;55.20;;;;;;5116577;28;20545;-82
2021/04/10 10:13:56;;;;;;;4.87;4.40;;;24.60;55.10;;;;;;5130896;28;20430;-82
2021/04/10 10:16:28;;;;;;;6.10;4.90;;;24.70;55.10;;;;;;5131343;28;20448;-92
2021/04/10 10:18:54;;;;;;;4.40;3.40;;;24.70;55.00;;;;;;5132343;28;20506;-94
2021/04/10 10:21:22;;;;;;;4.87;3.80;;;24.60;54.90;;;;;;5131820;28;20807;-93
2021/04/10 10:23:50;;;;;;;8.10;4.60;;;24.70;55.30;;;;;;5131803;28;20445;-93
2021/04/10 10:26:18;;;;;;;6.63;4.63;;;24.70;55.30;;;;;;5116357;28;20469;-82
2021/04/10 10:28:46;;;;;;;14.47;6.37;;;24.70;55.40;;;;;;5109848;28;20770;-88
2021/04/10 10:40:57;;;;;;;6.93;4.73;;;24.60;55.30;;;;;;5110698;28;20475;-89
2021/04/10 10:43:25;;;;;;;7.40;4.70;;;24.60;55.30;;;;;;5110558;28;20437;-91
2021/04/10 10:45:53;;;;;;;6.57;4.17;;;24.60;55.30;;;;;;5110162;28;20470;-87
2021/04/10 10:48:31;;;;;;;6.30;5.70;;;24.60;55.30;;;;;;5110507;28;20454;-89
2021/04/10 10:51:05;;;;;;;10.33;5.23;;;24.60;55.00;;;;;;5108985;28;20500;-88
2021/04/10 10:53:33;;;;;;;12.57;5.50;;;24.80;55.20;;;;;;5109571;28;20453;-88
2021/04/10 10:56:07;;;;;;;6.83;4.40;;;24.60;55.20;;;;;;5109375;28;20542;-88
2021/04/10 10:58:35;;;;;;;4.90;4.33;;;24.70;55.30;;;;;;5109510;28;20806;-88
2021/04/10 11:01:02;;;;;;;7.20;4.50;;;24.80;55.40;;;;;;5109102;28;20494;-88
2021/04/10 11:03:29;;;;;;;6.10;4.67;;;24.70;55.30;;;;;;5109391;28;20516;-88
2021/04/10 11:05:56;;;;;;;4.80;4.40;;;24.70;55.20;;;;;;5109284;28;20454;-88
2021/04/10 11:08:24;;;;;;;8.43;4.17;;;24.70;55.20;;;;;;5109233;28;20443;-88
2021/04/10 11:10:53;;;;;;;9.50;4.50;;;24.80;55.30;;;;;;5106210;28;20450;-88
2021/04/10 11:13:21;;;;;;;5.97;4.20;;;24.70;55.20;;;;;;5095564;28;20567;-88
2021/04/10 11:15:48;;;;;;;6.70;4.50;;;24.70;55.30;;;;;;5095569;28;20443;-88
2021/04/10 11:18:31;;;;;;;5.60;4.60;;;24.80;55.40;;;;;;5095628;28;20450;-90
2021/04/10 11:21:28;;;;;;;7.13;4.47;;;24.70;55.50;;;;;;5094540;28;20479;-84
2021/04/10 11:24:14;;;;;;;4.67;4.27;;;24.70;55.30;;;;;;5094474;28;20443;-84
2021/04/10 11:26:46;;;;;;;4.57;4.00;;;24.70;55.30;;;;;;5095068;28;20463;-87
2021/04/10 11:29:24;;;;;;;5.90;4.17;;;24.70;55.40;;;;;;5095667;28;20454;-87
2021/04/10 11:32:16;;;;;;;6.63;4.90;;;24.60;55.40;;;;;;5095344;28;20447;-87
2021/04/10 11:34:54;;;;;;;5.50;4.00;;;24.70;55.40;;;;;;5095960;28;20451;-88
2021/04/10 11:37:22;;;;;;;7.80;4.13;;;24.60;55.40;;;;;;5096092;28;20436;-85
2021/04/10 11:39:55;;;;;;;4.23;3.87;;;24.60;55.40;;;;;;5096076;28;20475;-85
2021/04/10 11:42:30;;;;;;;4.47;4.17;;;24.70;55.50;;;;;;5095696;28;20442;-89
2021/04/10 11:44:59;;;;;;;5.57;4.30;;;24.70;55.40;;;;;;5095697;28;20453;-84
2021/04/10 11:47:28;;;;;;;7.27;4.53;;;24.60;55.40;;;;;;5095974;28;20782;-86
2021/04/10 11:50:06;;;;;;;6.40;4.30;;;24.60;55.40;;;;;;5090214;28;20468;-85
2021/04/10 11:52:33;;;;;;;5.00;4.10;;;24.70;55.40;;;;;;5095530;28;21062;-86
2021/04/10 11:55:09;;;;;;;4.53;4.13;;;24.70;55.40;;;;;;5095188;28;20458;-87
2021/04/10 11:57:37;;;;;;;4.30;3.90;;;24.70;55.40;;;;;;5075557;28;20798;-88
2021/04/10 12:00:13;;;;;;;4.33;3.93;;;24.70;55.40;;;;;;5073262;28;20491;-87
2021/04/10 12:02:43;;;;;;;4.77;4.37;;;24.70;55.60;;;;;;5075067;28;20844;-88
2021/04/10 12:05:23;;;;;;;4.33;3.57;;;24.70;55.40;;;;;;5075246;28;20455;-86
2021/04/10 12:08:07;;;;;;;4.73;3.00;;;24.70;55.50;;;;;;5075271;28;20444;-87
2021/04/10 12:10:34;;;;;;;5.43;4.13;;;24.70;55.50;;;;;;5075541;28;20531;-86
2021/04/10 12:13:00;;;;;;;6.67;4.00;;;24.70;55.70;;;;;;5075974;28;20448;-89
2021/04/10 12:15:28;;;;;;;4.50;4.20;;;24.70;55.50;;;;;;5076026;28;20436;-90
2021/04/10 12:17:54;;;;;;;5.47;3.83;;;24.70;55.70;;;;;;5077161;28;20440;-89
2021/04/10 12:20:21;;;;;;;3.37;3.07;;;24.70;55.60;;;;;;5098841;28;20464;-85
2021/04/10 12:22:48;;;;;;;6.07;3.63;;;24.70;55.60;;;;;;5105808;28;20453;-88
2021/04/10 12:25:14;;;;;;;4.83;4.13;;;24.90;55.80;;;;;;5119176;28;20522;-89
2021/04/10 12:27:41;;;;;;;5.10;3.40;;;24.70;55.60;;;;;;5102772;28;21010;-90
2021/04/10 12:30:08;;;;;;;4.00;3.70;;;24.70;55.60;;;;;;5094629;28;20442;-93
2021/04/10 12:32:35;;;;;;;4.07;3.77;;;24.70;55.60;;;;;;5094597;28;20453;-86
2021/04/10 12:35:02;;;;;;;4.20;3.90;;;24.80;55.70;;;;;;5094092;28;20450;-83
2021/04/10 12:37:28;;;;;;;3.70;3.40;;;24.80;55.70;;;;;;5094099;28;20435;-82
2021/04/10 12:39:54;;;;;;;3.70;3.40;;;24.80;55.40;;;;;;5093887;28;20495;-83
2021/04/10 12:42:20;;;;;;;3.70;3.40;;;24.70;55.00;;;;;;5093795;28;20446;-82
2021/04/10 12:44:47;;;;;;;3.93;3.63;;;24.70;55.50;;;;;;5093875;28;20779;-82
2021/04/10 12:47:15;;;;;;;3.63;3.30;;;24.70;55.00;;;;;;5094028;28;20972;-82
2021/04/10 12:49:42;;;;;;;8.13;4.10;;;24.70;55.00;;;;;;5093840;28;20474;-82
2021/04/10 12:52:09;;;;;;;4.30;3.60;;;24.70;55.00;;;;;;5094093;28;20442;-83
2021/04/10 12:54:35;;;;;;;4.50;4.20;;;24.70;55.10;;;;;;5093994;28;20462;-84
2021/04/10 12:57:01;;;;;;;3.53;3.20;;;24.70;55.10;;;;;;5093689;28;20443;-84
2021/04/10 12:59:27;;;;;;;3.50;3.20;;;24.60;55.00;;;;;;5093364;28;20937;-83
2021/04/10 13:01:56;;;;;;;6.23;3.83;;;24.60;54.90;;;;;;5093565;28;20454;-84
2021/04/10 13:04:23;;;;;;;3.20;3.00;;;24.60;54.90;;;;;;5093682;28;20442;-82
2021/04/10 13:06:51;;;;;;;5.67;4.00;;;24.60;54.90;;;;;;5093309;28;20518;-83